createdAt,value
2019-01-15T00:00:15.906Z,2.70
2019-01-15T00:02:56.816Z,2.70
2019-01-15T00:05:27.415Z,2.80
2019-01-15T00:07:57.567Z,2.70
2019-01-15T00:10:30.519Z,2.70
2019-01-15T00:13:00.014Z,2.70
2019-01-15T00:15:30.056Z,2.70
2019-01-15T00:18:01.409Z,2.70
2019-01-15T00:20:34.694Z,2.70
2019-01-15T00:25:35.857Z,2.70
2019-01-15T00:28:05.744Z,2.70
2019-01-15T00:30:37.883Z,2.70
2019-01-15T00:33:10.609Z,2.70
2019-01-15T00:35:41.297Z,2.70
2019-01-15T00:38:11.909Z,2.70
2019-01-15T00:40:43.129Z,2.70
2019-01-15T00:43:13.596Z,2.70
2019-01-15T00:45:43.167Z,2.70
2019-01-15T00:48:17.003Z,2.70
2019-01-15T00:50:50.902Z,2.60
2019-01-15T00:53:21.841Z,2.60
2019-01-15T00:55:52.865Z,2.60
2019-01-15T00:58:25.528Z,2.70
2019-01-15T01:00:58.276Z,2.70
2019-01-15T01:03:28.669Z,2.70
2019-01-15T01:06:01.861Z,2.70
2019-01-15T01:08:32.722Z,2.60
2019-01-15T01:11:04.389Z,2.60
2019-01-15T01:13:35.305Z,2.60
2019-01-15T01:16:09.577Z,2.60
2019-01-15T01:18:41.362Z,2.60
2019-01-15T01:21:12.854Z,2.60
2019-01-15T01:23:46.501Z,2.60
2019-01-15T01:26:27.941Z,2.60
2019-01-15T01:29:01.720Z,2.50
2019-01-15T01:31:34.501Z,2.50
2019-01-15T01:34:07.424Z,2.50
2019-01-15T01:36:40.761Z,2.50
2019-01-15T01:39:12.220Z,2.40
2019-01-15T01:41:45.979Z,2.50
2019-01-15T01:44:16.644Z,2.50
2019-01-15T01:46:47.009Z,2.40
2019-01-15T01:49:16.848Z,2.40
2019-01-15T01:51:48.814Z,2.40
2019-01-15T01:54:18.905Z,2.40
2019-01-15T01:56:49.286Z,2.40
2019-01-15T01:59:20.421Z,2.40
2019-01-15T02:01:49.984Z,2.30
2019-01-15T02:04:22.076Z,2.40
2019-01-15T02:06:52.494Z,2.30
2019-01-15T02:09:28.700Z,2.30
2019-01-15T02:12:00.678Z,2.30
2019-01-15T02:14:31.837Z,2.30
2019-01-15T02:17:14.453Z,2.30
2019-01-15T02:19:46.881Z,2.30
2019-01-15T02:22:18.694Z,2.30
2019-01-15T02:24:49.721Z,2.30
2019-01-15T02:27:21.909Z,2.30
2019-01-15T02:29:52.528Z,2.40
2019-01-15T02:32:25.417Z,2.40
2019-01-15T02:34:56.365Z,2.40
2019-01-15T02:37:26.344Z,2.40
2019-01-15T02:39:56.752Z,2.40
2019-01-15T02:42:33.397Z,2.40
2019-01-15T02:45:04.071Z,2.40
2019-01-15T02:47:34.585Z,2.40
2019-01-15T02:50:08.487Z,2.40
2019-01-15T02:52:46.156Z,2.40
2019-01-15T02:55:16.696Z,2.40
2019-01-15T02:57:49.214Z,2.30
2019-01-15T03:00:27.613Z,2.30
2019-01-15T03:02:58.627Z,2.30
2019-01-15T03:05:29.605Z,2.40
2019-01-15T03:08:00.073Z,2.60
2019-01-15T03:10:30.512Z,2.60
2019-01-15T03:13:02.902Z,2.60
2019-01-15T03:15:34.101Z,2.60
2019-01-15T03:18:04.471Z,2.50
2019-01-15T03:20:33.960Z,2.50
2019-01-15T03:23:05.046Z,2.40
2019-01-15T03:25:35.787Z,2.40
2019-01-15T03:28:06.589Z,2.40
2019-01-15T03:30:37.549Z,2.40
2019-01-15T03:33:09.436Z,2.30
2019-01-15T03:35:41.254Z,2.30
2019-01-15T03:38:11.920Z,2.30
2019-01-15T03:40:44.961Z,2.30
2019-01-15T03:43:20.667Z,2.30
2019-01-15T03:45:53.359Z,2.30
2019-01-15T03:48:23.198Z,2.30
2019-01-15T03:50:58.614Z,2.40
2019-01-15T03:53:30.529Z,2.40
2019-01-15T03:56:02.936Z,2.40
2019-01-15T03:58:34.527Z,2.40
2019-01-15T04:01:05.508Z,2.50
2019-01-15T04:03:36.920Z,2.50
2019-01-15T04:06:09.544Z,2.50
2019-01-15T04:08:41.539Z,2.50
2019-01-15T04:11:11.704Z,2.50
2019-01-15T04:13:44.401Z,2.40
2019-01-15T04:16:15.732Z,2.40
2019-01-15T04:18:50.460Z,2.40
2019-01-15T04:21:21.067Z,2.40
2019-01-15T04:23:53.952Z,2.40
2019-01-15T04:26:26.205Z,2.40
2019-01-15T04:28:57.682Z,2.40
2019-01-15T04:31:30.821Z,2.40
2019-01-15T04:34:03.375Z,2.40
2019-01-15T04:36:35.878Z,2.40
2019-01-15T04:39:09.015Z,2.40
2019-01-15T04:41:39.795Z,2.50
2019-01-15T04:44:24.993Z,2.50
2019-01-15T04:46:57.417Z,2.50
2019-01-15T04:49:35.002Z,2.50
2019-01-15T04:52:11.972Z,2.60
2019-01-15T04:54:51.586Z,2.60
2019-01-15T04:57:23.554Z,2.60
2019-01-15T04:59:59.759Z,2.60
2019-01-15T05:02:37.436Z,2.60
2019-01-15T05:05:07.988Z,2.60
2019-01-15T05:07:41.093Z,2.60
2019-01-15T05:10:22.490Z,2.60
2019-01-15T05:13:01.297Z,2.60
2019-01-15T05:15:32.873Z,2.60
2019-01-15T05:18:05.948Z,2.60
2019-01-15T05:20:36.109Z,2.60
2019-01-15T05:23:07.064Z,2.60
2019-01-15T05:25:38.474Z,2.70
2019-01-15T05:28:11.591Z,2.70
2019-01-15T05:30:49.777Z,2.70
2019-01-15T05:33:22.012Z,2.70
2019-01-15T05:35:53.316Z,2.70
2019-01-15T05:38:23.495Z,2.70
2019-01-15T05:40:56.205Z,2.70
2019-01-15T05:43:35.533Z,2.60
2019-01-15T05:46:01.768Z,2.60
2019-01-15T05:48:42.672Z,2.60
2019-01-15T05:51:47.709Z,2.60
2019-01-15T05:54:39.284Z,2.60
2019-01-15T05:57:15.717Z,2.60
2019-01-15T05:59:46.473Z,2.60
2019-01-15T06:02:20.465Z,2.60
2019-01-15T06:04:53.416Z,2.60
2019-01-15T06:07:33.494Z,2.60
2019-01-15T06:10:16.518Z,2.60
2019-01-15T06:12:47.384Z,2.60
2019-01-15T06:15:25.356Z,2.60
2019-01-15T06:17:59.613Z,2.60
2019-01-15T06:20:51.299Z,2.60
2019-01-15T06:23:40.480Z,2.50
2019-01-15T06:26:13.104Z,2.50
2019-01-15T06:31:36.429Z,2.50
2019-01-15T06:34:10.217Z,2.40
2019-01-15T06:36:44.742Z,2.40
2019-01-15T06:39:14.873Z,2.40
2019-01-15T06:41:46.750Z,2.40
2019-01-15T06:44:21.208Z,2.40
2019-01-15T06:46:56.468Z,2.40
2019-01-15T06:49:30.575Z,2.50
2019-01-15T06:52:12.386Z,2.50
2019-01-15T06:54:45.798Z,2.40
2019-01-15T06:57:35.868Z,2.40
2019-01-15T07:00:14.882Z,2.50
2019-01-15T07:02:46.873Z,2.50
2019-01-15T07:05:19.533Z,2.50
2019-01-15T07:07:52.441Z,2.50
2019-01-15T07:10:30.462Z,2.50
2019-01-15T07:13:02.513Z,2.50
2019-01-15T07:15:41.074Z,2.50
2019-01-15T07:18:16.505Z,2.50
2019-01-15T07:21:07.136Z,2.50
2019-01-15T07:23:38.936Z,2.50
2019-01-15T07:26:09.529Z,2.50
2019-01-15T07:28:49.480Z,2.60
2019-01-15T07:31:29.404Z,2.60
2019-01-15T07:34:03.639Z,2.60
2019-01-15T07:36:38.875Z,2.50
2019-01-15T07:39:23.452Z,2.40
2019-01-15T07:41:55.049Z,2.40
2019-01-15T07:44:27.770Z,2.40
2019-01-15T07:47:13.893Z,2.40
2019-01-15T07:49:49.556Z,2.50
2019-01-15T07:52:35.698Z,2.50
2019-01-15T07:55:06.991Z,2.50
2019-01-15T07:57:37.551Z,2.60
2019-01-15T08:00:10.186Z,2.60
2019-01-15T08:02:41.979Z,2.60
2019-01-15T08:05:15.110Z,2.70
2019-01-15T08:07:45.739Z,2.70
2019-01-15T08:10:19.601Z,2.70
2019-01-15T08:12:53.314Z,2.80
2019-01-15T08:15:29.659Z,2.80
2019-01-15T08:17:59.645Z,2.80
2019-01-15T08:20:30.381Z,2.80
2019-01-15T08:23:10.061Z,2.90
2019-01-15T08:26:00.856Z,2.90
2019-01-15T08:28:36.085Z,2.90
2019-01-15T08:31:08.521Z,3.00
2019-01-15T08:33:44.478Z,3.00
2019-01-15T08:36:23.136Z,3.00
2019-01-15T08:39:14.925Z,3.10
2019-01-15T08:42:04.209Z,3.10
2019-01-15T08:44:42.325Z,3.10
2019-01-15T08:47:12.225Z,3.10
2019-01-15T08:49:43.448Z,3.10
2019-01-15T08:52:13.351Z,3.20
2019-01-15T08:54:45.850Z,3.20
2019-01-15T08:57:18.180Z,3.20
2019-01-15T08:59:48.622Z,3.30
2019-01-15T09:02:18.173Z,3.20
2019-01-15T09:04:48.119Z,3.30
2019-01-15T09:07:18.817Z,3.30
2019-01-15T09:09:48.973Z,3.30
2019-01-15T09:12:20.358Z,3.30
2019-01-15T09:14:51.610Z,3.30
2019-01-15T09:17:22.029Z,3.30
2019-01-15T09:19:52.046Z,3.30
2019-01-15T09:22:21.565Z,3.30
2019-01-15T09:24:51.500Z,3.30
2019-01-15T09:27:21.120Z,3.30
2019-01-15T09:29:53.516Z,3.30
2019-01-15T09:32:24.067Z,3.40
2019-01-15T09:35:00.704Z,3.40
2019-01-15T09:37:33.381Z,3.40
2019-01-15T09:40:03.475Z,3.50
2019-01-15T09:42:37.553Z,3.50
2019-01-15T09:45:13.254Z,3.50
2019-01-15T09:48:24.210Z,3.60
2019-01-15T09:50:58.217Z,3.60
2019-01-15T09:53:32.308Z,3.70
2019-01-15T09:56:04.884Z,3.70
2019-01-15T09:58:38.559Z,3.70
2019-01-15T10:01:21.692Z,3.70
2019-01-15T10:03:52.143Z,3.70
2019-01-15T10:06:23.191Z,3.80
2019-01-15T10:08:53.285Z,3.80
2019-01-15T10:11:24.030Z,3.80
2019-01-15T10:13:55.943Z,3.90
2019-01-15T10:16:27.110Z,3.90
2019-01-15T10:18:57.374Z,3.90
2019-01-15T10:21:39.854Z,3.90
2019-01-15T10:24:14.504Z,4.00
2019-01-15T10:26:48.063Z,4.00
2019-01-15T10:29:29.809Z,4.10
2019-01-15T10:32:50.719Z,4.20
2019-01-15T10:35:39.700Z,4.30
2019-01-15T10:38:15.063Z,4.40
2019-01-15T10:40:47.404Z,4.50
2019-01-15T10:43:19.282Z,4.50
2019-01-15T10:45:56.175Z,4.60
2019-01-15T10:48:30.863Z,4.70
2019-01-15T10:51:02.364Z,4.70
2019-01-15T10:53:37.347Z,4.70
2019-01-15T10:56:18.468Z,4.80
2019-01-15T10:58:52.015Z,4.80
2019-01-15T11:01:21.590Z,4.90
2019-01-15T11:04:03.447Z,4.90
2019-01-15T11:06:45.153Z,4.90
2019-01-15T11:09:29.620Z,4.80
2019-01-15T11:12:19.267Z,4.90
2019-01-15T11:14:55.867Z,4.80
2019-01-15T11:17:24.939Z,4.70
2019-01-15T11:19:56.619Z,4.80
2019-01-15T11:22:35.114Z,4.80
2019-01-15T11:25:14.477Z,4.80
2019-01-15T11:27:45.760Z,4.80
2019-01-15T11:30:35.074Z,4.90
2019-01-15T11:33:11.325Z,5.00
2019-01-15T11:35:45.443Z,5.00
2019-01-15T11:38:23.557Z,5.00
2019-01-15T11:40:54.116Z,5.10
2019-01-15T11:43:24.764Z,5.20
2019-01-15T11:45:55.509Z,5.30
2019-01-15T11:48:28.799Z,5.40
2019-01-15T11:50:59.651Z,5.40
2019-01-15T11:53:31.731Z,5.50
2019-01-15T11:56:03.916Z,5.60
2019-01-15T11:58:34.578Z,5.70
2019-01-15T12:01:19.997Z,5.70
2019-01-15T12:04:09.641Z,5.80
2019-01-15T12:07:08.291Z,5.80
2019-01-15T12:09:59.578Z,5.90
2019-01-15T12:12:49.211Z,5.90
2019-01-15T12:15:28.573Z,6.00
2019-01-15T12:18:13.181Z,6.10
2019-01-15T12:21:04.914Z,6.00
2019-01-15T12:23:48.851Z,6.00
2019-01-15T12:26:37.507Z,6.10
2019-01-15T12:29:31.575Z,6.20
2019-01-15T12:32:20.896Z,6.30
2019-01-15T12:35:08.359Z,6.40
2019-01-15T12:37:59.886Z,6.40
2019-01-15T12:40:47.045Z,6.50
2019-01-15T12:43:57.432Z,6.50
2019-01-15T12:47:03.825Z,6.60
2019-01-15T12:50:03.327Z,6.50
2019-01-15T12:52:49.966Z,6.60
2019-01-15T12:55:46.592Z,6.60
2019-01-15T12:58:42.125Z,6.60
2019-01-15T13:01:37.449Z,6.70
2019-01-15T13:04:37.834Z,6.70
2019-01-15T13:07:46.510Z,6.70
2019-01-15T13:10:47.945Z,6.80
2019-01-15T13:14:03.943Z,6.80
2019-01-15T13:16:46.510Z,6.80
2019-01-15T13:19:34.388Z,6.90
2019-01-15T13:22:30.074Z,6.90
2019-01-15T13:25:29.806Z,7.00
2019-01-15T13:28:28.413Z,6.90
2019-01-15T13:31:27.133Z,6.90
2019-01-15T13:34:36.997Z,7.00
2019-01-15T13:37:25.084Z,7.00
2019-01-15T13:40:22.883Z,7.00
2019-01-15T13:43:18.570Z,7.00
2019-01-15T13:46:21.221Z,7.10
2019-01-15T13:49:19.931Z,7.00
2019-01-15T13:52:15.019Z,7.00
2019-01-15T13:55:01.957Z,7.00
2019-01-15T14:01:08.738Z,7.10
2019-01-15T14:03:53.574Z,7.10
2019-01-15T14:06:58.757Z,7.10
2019-01-15T14:09:59.003Z,7.10
2019-01-15T14:13:08.942Z,7.10
2019-01-15T14:16:21.452Z,7.20
2019-01-15T14:19:10.622Z,7.10
2019-01-15T14:22:10.814Z,7.10
2019-01-15T14:25:14.993Z,7.10
2019-01-15T14:28:10.690Z,7.10
2019-01-15T14:31:01.017Z,7.10
2019-01-15T14:33:51.804Z,7.20
2019-01-15T14:36:48.680Z,7.20
2019-01-15T14:39:41.947Z,7.20
2019-01-15T14:42:29.665Z,7.20
2019-01-15T14:45:33.460Z,7.20
2019-01-15T14:48:27.513Z,7.20
2019-01-15T14:51:22.994Z,7.20
2019-01-15T14:54:15.984Z,7.20
2019-01-15T14:57:05.902Z,7.20
2019-01-15T15:00:07.807Z,7.20
2019-01-15T15:02:57.590Z,7.20
2019-01-15T15:05:39.940Z,7.30
2019-01-15T15:08:28.650Z,7.30
2019-01-15T15:11:26.330Z,7.30
2019-01-15T15:14:14.480Z,7.30
2019-01-15T15:17:17.542Z,7.30
2019-01-15T15:19:59.238Z,7.30
2019-01-15T15:22:46.967Z,7.30
2019-01-15T15:25:37.357Z,7.30
2019-01-15T15:28:26.156Z,7.30
2019-01-15T15:31:13.046Z,7.30
2019-01-15T15:34:10.218Z,7.20
2019-01-15T15:39:50.398Z,7.20
2019-01-15T15:42:51.117Z,7.20
2019-01-15T15:45:40.301Z,7.20
2019-01-15T15:48:28.280Z,7.30
2019-01-15T15:51:22.055Z,7.20
2019-01-15T15:54:22.707Z,7.10
2019-01-15T15:57:15.381Z,7.10
2019-01-15T15:59:52.249Z,7.10
2019-01-15T16:02:45.319Z,7.00
2019-01-15T16:06:01.110Z,7.00
2019-01-15T16:08:53.664Z,7.00
2019-01-15T16:11:47.994Z,7.00
2019-01-15T16:14:27.041Z,7.00
2019-01-15T16:17:36.033Z,6.90
2019-01-15T16:20:27.109Z,6.90
2019-01-15T16:23:25.099Z,6.80
2019-01-15T16:26:16.495Z,6.80
2019-01-15T16:29:21.242Z,6.70
2019-01-15T16:32:21.317Z,6.70
2019-01-15T16:35:23.227Z,6.60
2019-01-15T16:38:23.354Z,6.60
2019-01-15T16:41:24.292Z,6.50
2019-01-15T16:44:29.779Z,6.50
2019-01-15T16:47:24.218Z,6.40
2019-01-15T16:50:13.438Z,6.40
2019-01-15T16:53:20.202Z,6.40
2019-01-15T16:56:09.385Z,6.40
2019-01-15T16:59:18.801Z,6.30
2019-01-15T17:02:06.368Z,6.30
2019-01-15T17:05:05.833Z,6.30
2019-01-15T17:07:59.363Z,6.30
2019-01-15T17:10:52.930Z,6.20
2019-01-15T17:13:48.008Z,6.20
2019-01-15T17:16:36.656Z,6.20
2019-01-15T17:19:38.831Z,6.20
2019-01-15T17:22:23.484Z,6.20
2019-01-15T17:25:12.770Z,6.10
2019-01-15T17:28:00.922Z,6.10
2019-01-15T17:30:48.437Z,6.10
2019-01-15T17:33:42.342Z,6.10
2019-01-15T17:36:50.716Z,6.10
2019-01-15T17:39:46.411Z,6.20
2019-01-15T17:42:46.414Z,6.20
2019-01-15T17:45:30.165Z,6.10
2019-01-15T17:48:25.479Z,6.10
2019-01-15T17:51:15.324Z,6.10
2019-01-15T17:54:17.875Z,6.20
2019-01-15T17:57:16.620Z,6.20
2019-01-15T18:00:17.379Z,6.20
2019-01-15T18:03:16.733Z,6.10
2019-01-15T18:06:09.032Z,6.10
2019-01-15T18:09:11.917Z,6.10
2019-01-15T18:12:04.197Z,6.00
2019-01-15T18:14:57.890Z,6.00
2019-01-15T18:17:49.527Z,5.90
2019-01-15T18:20:50.435Z,5.90
2019-01-15T18:23:41.119Z,5.80
2019-01-15T18:26:32.557Z,5.60
2019-01-15T18:29:21.619Z,5.50
2019-01-15T18:32:10.260Z,5.40
2019-01-15T18:35:03.570Z,5.20
2019-01-15T18:38:04.498Z,5.10
2019-01-15T18:41:01.890Z,5.00
2019-01-15T18:44:02.791Z,5.00
2019-01-15T18:46:58.073Z,4.90
2019-01-15T18:49:49.348Z,4.80
2019-01-15T18:52:54.807Z,4.70
2019-01-15T18:55:48.147Z,4.50
2019-01-15T18:58:58.995Z,4.40
2019-01-15T19:01:56.573Z,4.30
2019-01-15T19:04:48.218Z,4.20
2019-01-15T19:07:39.926Z,4.10
2019-01-15T19:10:39.298Z,4.00
2019-01-15T19:13:28.245Z,3.90
2019-01-15T19:16:23.778Z,3.80
2019-01-15T19:19:10.585Z,3.70
2019-01-15T19:22:01.972Z,3.70
2019-01-15T19:25:05.980Z,3.60
2019-01-15T19:28:11.029Z,3.50
2019-01-15T19:31:03.980Z,3.40
2019-01-15T19:33:52.482Z,3.30
2019-01-15T19:36:40.542Z,3.20
2019-01-15T19:39:37.716Z,3.20
2019-01-15T19:42:43.719Z,3.10
2019-01-15T19:45:31.528Z,3.10
2019-01-15T19:48:15.370Z,3.00
2019-01-15T19:51:08.406Z,2.90
2019-01-15T19:54:02.561Z,2.90
2019-01-15T19:56:49.271Z,2.90
2019-01-15T19:59:25.750Z,2.80
2019-01-15T20:02:13.089Z,2.80
2019-01-15T20:04:57.399Z,2.80
2019-01-15T20:07:44.768Z,2.70
2019-01-15T20:10:32.644Z,2.70
2019-01-15T20:13:19.543Z,2.70
2019-01-15T20:16:13.377Z,2.60
2019-01-15T20:19:14.347Z,2.60
2019-01-15T20:22:07.090Z,2.60
2019-01-15T20:24:59.724Z,2.60
2019-01-15T20:27:41.062Z,2.50
2019-01-15T20:30:43.036Z,2.50
2019-01-15T20:33:26.707Z,2.50
2019-01-15T20:36:28.044Z,2.40
2019-01-15T20:39:17.828Z,2.40
2019-01-15T20:42:07.502Z,2.30
2019-01-15T20:44:58.989Z,2.30
2019-01-15T20:47:54.434Z,2.30
2019-01-15T20:50:43.704Z,2.30
2019-01-15T20:53:32.248Z,2.20
2019-01-15T20:56:38.906Z,2.20
2019-01-15T20:59:30.391Z,2.20
2019-01-15T21:02:17.738Z,2.10
2019-01-15T21:05:14.677Z,2.10
2019-01-15T21:08:06.054Z,2.10
2019-01-15T21:11:06.966Z,2.10
2019-01-15T21:14:01.687Z,2.10
2019-01-15T21:16:54.381Z,2.00
2019-01-15T21:19:46.689Z,2.00
2019-01-15T21:22:50.678Z,2.00
2019-01-15T21:26:02.536Z,2.00
2019-01-15T21:29:08.564Z,2.00
2019-01-15T21:32:17.321Z,1.90
2019-01-15T21:35:26.282Z,1.90
2019-01-15T21:38:14.626Z,1.80
2019-01-15T21:41:07.367Z,1.80
2019-01-15T21:44:14.762Z,1.80
2019-01-15T21:46:58.606Z,1.80
2019-01-15T21:50:14.980Z,1.80
2019-01-15T21:53:02.911Z,1.80
2019-01-15T21:56:14.188Z,1.80
2019-01-15T21:59:04.238Z,1.70
2019-01-15T22:02:10.504Z,1.60
2019-01-15T22:05:05.736Z,1.60
2019-01-15T22:08:15.404Z,1.50
2019-01-15T22:11:05.752Z,1.50
2019-01-15T22:14:07.727Z,1.50
2019-01-15T22:16:57.956Z,1.40
2019-01-15T22:19:45.469Z,1.40
2019-01-15T22:22:46.559Z,1.40
2019-01-15T22:25:31.262Z,1.40
2019-01-15T22:28:30.604Z,1.40
2019-01-15T22:31:22.329Z,1.40
2019-01-15T22:34:20.533Z,1.40
2019-01-15T22:37:36.373Z,1.30
2019-01-15T22:40:31.866Z,1.30
2019-01-15T22:43:22.097Z,1.20
2019-01-15T22:49:10.118Z,1.20
2019-01-15T22:55:20.645Z,1.30
2019-01-15T22:58:21.462Z,1.30
2019-01-15T23:01:13.921Z,1.30
2019-01-15T23:04:12.404Z,1.30
2019-01-15T23:07:16.818Z,1.20
2019-01-15T23:10:14.126Z,1.20
2019-01-15T23:13:11.396Z,1.10
2019-01-15T23:16:31.568Z,1.10
2019-01-15T23:19:28.414Z,1.10
2019-01-15T23:27:24.037Z,0.90
2019-01-15T23:30:17.171Z,0.90
2019-01-15T23:33:07.579Z,1.00
2019-01-15T23:35:59.203Z,0.90
2019-01-15T23:38:57.134Z,0.90
